createdAt,value
2023-04-16T00:03:39.827Z,6.7
2023-04-16T00:08:39.687Z,6.7
2023-04-16T00:13:39.694Z,6.7
2023-04-16T00:23:39.684Z,6.7
2023-04-16T00:28:39.706Z,6.7
2023-04-16T00:38:39.679Z,6.7
2023-04-16T00:43:39.700Z,6.8
2023-04-16T00:53:39.687Z,6.7
2023-04-16T00:58:39.697Z,6.7
2023-04-16T01:08:39.684Z,6.8
2023-04-16T01:13:40.008Z,6.8
2023-04-16T01:23:39.678Z,6.8
2023-04-16T01:28:39.694Z,6.7
2023-04-16T01:33:39.716Z,6.7
2023-04-16T01:43:40.383Z,6.8
2023-04-16T01:48:39.705Z,6.8
2023-04-16T01:53:39.713Z,6.7
2023-04-16T02:03:39.848Z,6.8
2023-04-16T02:08:39.696Z,6.8
2023-04-16T02:13:39.715Z,6.8
2023-04-16T02:23:39.712Z,6.7
2023-04-16T02:28:39.704Z,6.7
2023-04-16T02:38:39.716Z,6.7
2023-04-16T02:43:39.714Z,6.7
2023-04-16T02:53:39.695Z,6.8
2023-04-16T03:03:39.698Z,6.7
2023-04-16T03:13:39.690Z,6.7
2023-04-16T03:23:39.673Z,6.8
2023-04-16T03:28:39.689Z,6.7
2023-04-16T03:38:39.671Z,6.8
2023-04-16T03:43:39.687Z,6.8
2023-04-16T03:53:39.671Z,6.8
2023-04-16T03:58:39.697Z,6.8
2023-04-16T04:08:39.681Z,6.8
2023-04-16T04:13:39.706Z,6.8
2023-04-16T04:23:39.691Z,6.8
2023-04-16T04:33:39.686Z,6.8
2023-04-16T04:43:39.676Z,6.9
2023-04-16T04:48:39.690Z,6.9
2023-04-16T04:53:39.686Z,6.9
2023-04-16T05:03:39.772Z,6.9
2023-04-16T05:08:39.701Z,6.9
2023-04-16T05:18:39.697Z,6.9
2023-04-16T05:23:39.707Z,6.9
2023-04-16T05:33:39.704Z,7
2023-04-16T05:38:39.694Z,6.9
2023-04-16T05:48:39.704Z,7.1
2023-04-16T05:58:39.694Z,7.1
2023-04-16T06:03:39.834Z,7
2023-04-16T06:13:39.672Z,7.1
2023-04-16T06:18:39.670Z,7.1
2023-04-16T06:23:39.688Z,7
2023-04-16T06:33:39.682Z,7.1
2023-04-16T06:43:39.676Z,7.2
2023-04-16T06:53:39.680Z,7.2
2023-04-16T06:58:39.685Z,7.2
2023-04-16T07:03:39.806Z,7.3
2023-04-16T07:08:39.675Z,7.3
2023-04-16T07:13:39.680Z,7.3
2023-04-16T07:18:39.700Z,7.3
2023-04-16T07:28:39.699Z,7.4
2023-04-16T07:38:39.695Z,7.5
2023-04-16T07:43:39.692Z,7.4
2023-04-16T07:53:39.677Z,7.5
2023-04-16T08:03:39.891Z,7.5
2023-04-16T08:13:39.688Z,7.5
2023-04-16T08:23:39.695Z,7.5
2023-04-16T08:33:39.691Z,7.7
2023-04-16T08:43:39.681Z,7.8
2023-04-16T08:58:39.704Z,8.1
2023-04-16T09:08:39.678Z,8.3
2023-04-16T09:13:39.690Z,8.3
2023-04-16T09:18:39.694Z,8.4
2023-04-16T09:23:39.713Z,8.6
2023-04-16T09:28:39.719Z,8.8
2023-04-16T09:38:39.719Z,9.1
2023-04-16T09:48:39.756Z,9.1
2023-04-16T09:53:39.734Z,9.1
2023-04-16T10:03:40.112Z,9.3
2023-04-16T10:08:39.728Z,9.4
2023-04-16T10:13:39.725Z,9.4
2023-04-16T10:23:39.734Z,9.3
2023-04-16T10:33:39.673Z,9.5
2023-04-16T10:43:39.717Z,9.6
2023-04-16T10:53:39.678Z,9.4
2023-04-16T10:58:39.696Z,9.6
2023-04-16T11:08:53.294Z,9.8
2023-04-16T11:13:40.076Z,10
2023-04-16T11:23:39.674Z,10.2
2023-04-16T11:28:39.685Z,10.1
2023-04-16T11:33:39.756Z,10
2023-04-16T11:38:39.665Z,10.1
2023-04-16T11:43:39.765Z,10.2
2023-04-16T11:53:39.742Z,10.8
2023-04-16T12:03:40.129Z,10.6
2023-04-16T12:08:39.709Z,10.6
2023-04-16T12:13:39.845Z,10.9
2023-04-16T12:18:39.793Z,11.1
2023-04-16T12:28:39.692Z,11.2
2023-04-16T12:33:39.749Z,11
2023-04-16T12:38:39.888Z,11.2
2023-04-16T12:43:39.915Z,11.3
2023-04-16T12:53:39.951Z,11.6
2023-04-16T12:58:39.977Z,11.8
2023-04-16T13:03:40.158Z,11.8
2023-04-16T13:13:40.115Z,12.2
2023-04-16T13:23:40.060Z,12.3
2023-04-16T13:28:39.733Z,11.9
2023-04-16T13:38:39.709Z,12.1
2023-04-16T13:48:39.679Z,11.9
2023-04-16T13:58:39.692Z,12.1
2023-04-16T14:08:39.668Z,12.2
2023-04-16T14:13:39.673Z,12.2
2023-04-16T14:23:39.706Z,12.2
2023-04-16T14:28:39.697Z,12.1
2023-04-16T14:38:39.697Z,11.9
2023-04-16T14:43:40.514Z,12
2023-04-16T14:53:39.685Z,11.9
2023-04-16T14:58:39.693Z,11.9
2023-04-16T15:08:39.676Z,12
2023-04-16T15:18:39.689Z,12.2
2023-04-16T15:28:39.681Z,12.3
2023-04-16T15:33:39.706Z,12.1
2023-04-16T15:38:39.701Z,12.1
2023-04-16T15:43:39.719Z,12.1
2023-04-16T15:53:39.713Z,12.2
2023-04-16T15:58:39.730Z,12.1
2023-04-16T16:08:39.723Z,12.1
2023-04-16T16:13:39.725Z,11.9
2023-04-16T16:23:39.712Z,11.8
2023-04-16T16:28:39.717Z,11.6
2023-04-16T16:33:40.622Z,11.4
2023-04-16T16:43:39.697Z,11.3
2023-04-16T16:53:39.685Z,10.8
2023-04-16T16:58:39.670Z,10.7
2023-04-16T17:08:39.680Z,10.5
2023-04-16T17:13:39.704Z,10.3
2023-04-16T17:23:41.237Z,10.3
2023-04-16T17:28:39.695Z,10.3
2023-04-16T17:38:39.694Z,10.3
2023-04-16T17:43:39.697Z,10.3
2023-04-16T17:53:39.717Z,10.2
2023-04-16T17:58:39.719Z,10.2
2023-04-16T18:03:39.930Z,10.2
2023-04-16T18:13:39.695Z,10.2
2023-04-16T18:23:39.708Z,10.1
2023-04-16T18:33:55.689Z,10.1
2023-04-16T18:43:39.679Z,9.8
2023-04-16T18:53:39.680Z,9.9
2023-04-16T18:58:39.699Z,9.9
2023-04-16T19:08:39.734Z,9.9
2023-04-16T19:18:39.734Z,9.9
2023-04-16T19:28:39.719Z,9.6
2023-04-16T19:38:39.684Z,9.5
2023-04-16T19:43:39.693Z,9.4
2023-04-16T19:53:39.704Z,9.4
2023-04-16T20:03:39.746Z,9.4
2023-04-16T20:08:39.704Z,9.4
2023-04-16T20:13:39.713Z,9.4
2023-04-16T20:18:39.714Z,9.3
2023-04-16T20:23:39.724Z,9.3
2023-04-16T20:28:39.718Z,9.3
2023-04-16T20:38:39.743Z,9.3
2023-04-16T20:48:39.702Z,9.3
2023-04-16T20:53:39.706Z,9.3
2023-04-16T21:03:39.850Z,9.3
2023-04-16T21:13:39.692Z,9.3
2023-04-16T21:18:39.690Z,9.3
2023-04-16T21:23:39.694Z,9.3
2023-04-16T21:28:39.705Z,9.3
2023-04-16T21:38:39.688Z,9.3
2023-04-16T21:43:39.691Z,9.3
2023-04-16T21:53:39.690Z,9.3
2023-04-16T22:03:40.042Z,9.3
2023-04-16T22:13:39.672Z,9.2
2023-04-16T22:18:39.675Z,9.2
2023-04-16T22:23:39.694Z,9.1
2023-04-16T22:33:39.712Z,9.1
2023-04-16T22:43:39.698Z,8.9
2023-04-16T22:53:39.692Z,8.8
2023-04-16T23:03:39.810Z,8.7
2023-04-16T23:13:39.689Z,8.7
2023-04-16T23:23:39.690Z,8.6
2023-04-16T23:28:39.710Z,8.6
2023-04-16T23:33:39.728Z,8.6
2023-04-16T23:43:39.733Z,8.6
2023-04-16T23:53:39.716Z,8.4
2023-04-16T23:58:39.715Z,8.4
